createdAt,value
2023-11-22T00:01:07.714Z,2.03
2023-11-22T00:03:34.944Z,2.10
2023-11-22T00:06:04.931Z,2.43
2023-11-22T00:08:32.204Z,2.27
2023-11-22T00:10:59.990Z,2.10
2023-11-22T00:13:27.176Z,2.60
2023-11-22T00:15:54.294Z,1.80
2023-11-22T00:18:21.512Z,2.37
2023-11-22T00:20:49.918Z,2.23
2023-11-22T00:23:17.277Z,2.30
2023-11-22T00:25:44.564Z,2.00
2023-11-22T00:28:12.695Z,2.07
2023-11-22T00:30:40.431Z,2.57
2023-11-22T00:33:07.732Z,2.00
2023-11-22T00:35:35.193Z,2.60
2023-11-22T00:38:02.543Z,2.50
2023-11-22T00:40:29.799Z,1.97
2023-11-22T00:42:56.985Z,1.63
2023-11-22T00:45:24.316Z,2.00
2023-11-22T00:47:52.498Z,2.30
2023-11-22T00:50:21.179Z,1.93
2023-11-22T00:52:48.937Z,2.27
2023-11-22T00:55:16.794Z,2.50
2023-11-22T00:57:44.716Z,2.07
2023-11-22T01:00:13.374Z,2.27
2023-11-22T01:02:40.859Z,2.40
2023-11-22T01:05:12.595Z,2.00
2023-11-22T01:07:40.427Z,2.10
2023-11-22T01:10:08.905Z,2.37
2023-11-22T01:12:35.781Z,2.30
2023-11-22T01:15:03.620Z,2.20
2023-11-22T01:17:32.860Z,2.17
2023-11-22T01:20:03.212Z,1.83
2023-11-22T01:22:30.448Z,1.97
2023-11-22T01:24:57.638Z,2.17
2023-11-22T01:27:25.658Z,1.97
2023-11-22T01:29:55.325Z,2.33
2023-11-22T01:32:22.876Z,2.20
2023-11-22T01:34:50.076Z,2.30
2023-11-22T01:37:17.253Z,2.00
2023-11-22T01:39:44.149Z,2.00
2023-11-22T01:42:11.388Z,2.00
2023-11-22T01:44:38.702Z,2.70
2023-11-22T01:47:06.296Z,2.10
2023-11-22T01:49:33.719Z,1.63
2023-11-22T01:52:01.584Z,2.13
2023-11-22T01:54:30.911Z,2.17
2023-11-22T01:56:58.112Z,2.70
2023-11-22T01:59:27.322Z,2.30
2023-11-22T02:01:55.772Z,2.17
2023-11-22T02:04:22.615Z,1.93
2023-11-22T02:06:51.760Z,1.53
2023-11-22T02:09:19.127Z,2.30
2023-11-22T02:11:48.869Z,2.00
2023-11-22T02:14:16.223Z,1.87
2023-11-22T02:16:43.713Z,1.83
2023-11-22T02:19:17.602Z,2.00
2023-11-22T02:21:45.086Z,2.50
2023-11-22T02:24:12.922Z,2.30
2023-11-22T02:26:40.287Z,1.93
2023-11-22T02:29:07.596Z,2.10
2023-11-22T02:31:35.222Z,2.97
2023-11-22T02:34:02.418Z,2.07
2023-11-22T02:36:29.091Z,2.03
2023-11-22T02:38:56.342Z,2.20
2023-11-22T02:41:23.484Z,1.90
2023-11-22T02:43:50.592Z,2.10
2023-11-22T02:46:17.583Z,2.20
2023-11-22T02:48:46.249Z,2.40
2023-11-22T02:51:14.772Z,2.43
2023-11-22T02:53:44.861Z,2.17
2023-11-22T02:56:13.233Z,2.47
2023-11-22T02:58:40.425Z,2.50
2023-11-22T03:01:08.547Z,2.10
2023-11-22T03:03:36.218Z,2.10
2023-11-22T03:06:03.112Z,2.47
2023-11-22T03:08:30.392Z,1.80
2023-11-22T03:11:09.418Z,1.97
2023-11-22T03:13:36.599Z,1.97
2023-11-22T03:16:04.790Z,2.10
2023-11-22T03:18:32.154Z,1.77
2023-11-22T03:21:02.434Z,2.20
2023-11-22T03:23:29.638Z,2.33
2023-11-22T03:25:56.883Z,2.00
2023-11-22T03:28:24.027Z,1.93
2023-11-22T03:30:51.201Z,2.30
2023-11-22T03:33:17.918Z,2.00
2023-11-22T03:35:45.136Z,1.77
2023-11-22T03:38:12.294Z,2.13
2023-11-22T03:40:39.753Z,2.47
2023-11-22T03:43:09.263Z,2.10
2023-11-22T03:45:36.408Z,2.30
2023-11-22T03:48:03.707Z,1.93
2023-11-22T03:50:31.258Z,2.37
2023-11-22T03:52:58.498Z,2.13
2023-11-22T03:55:25.643Z,2.13
2023-11-22T03:57:52.313Z,2.57
2023-11-22T04:00:20.312Z,2.37
2023-11-22T04:02:47.567Z,2.30
2023-11-22T04:05:14.999Z,2.07
2023-11-22T04:07:42.229Z,2.73
2023-11-22T04:10:09.566Z,2.40
2023-11-22T04:12:37.165Z,2.20
2023-11-22T04:15:05.203Z,2.30
2023-11-22T04:17:33.496Z,2.03
2023-11-22T04:20:00.739Z,2.40
2023-11-22T04:22:27.893Z,1.90
2023-11-22T04:24:54.554Z,2.43
2023-11-22T04:27:21.288Z,2.43
2023-11-22T04:29:48.397Z,2.57
2023-11-22T04:32:16.476Z,1.90
2023-11-22T04:34:43.301Z,2.10
2023-11-22T04:37:10.523Z,2.40
2023-11-22T04:39:37.627Z,2.20
2023-11-22T04:42:04.894Z,2.27
2023-11-22T04:44:33.262Z,1.83
2023-11-22T04:47:00.562Z,2.20
2023-11-22T04:49:27.831Z,2.20
2023-11-22T04:51:56.170Z,2.33
2023-11-22T04:54:23.332Z,2.13
2023-11-22T04:56:51.554Z,2.00
2023-11-22T04:59:19.275Z,2.30
2023-11-22T05:01:46.505Z,2.37
2023-11-22T05:04:13.687Z,2.10
2023-11-22T05:06:40.913Z,2.23
2023-11-22T05:09:08.046Z,1.90
2023-11-22T05:11:35.204Z,2.70
2023-11-22T05:14:02.398Z,2.40
2023-11-22T05:16:29.639Z,2.87
2023-11-22T05:18:56.773Z,2.70
2023-11-22T05:21:23.962Z,2.50
2023-11-22T05:23:51.177Z,2.23
2023-11-22T05:26:17.993Z,3.07
2023-11-22T05:28:45.281Z,2.87
2023-11-22T05:31:13.699Z,2.37
2023-11-22T05:33:41.017Z,1.70
2023-11-22T05:36:09.511Z,2.60
2023-11-22T05:38:36.729Z,2.20
2023-11-22T05:41:03.647Z,2.20
2023-11-22T05:43:31.431Z,2.33
2023-11-22T05:45:58.734Z,2.00
2023-11-22T05:48:25.965Z,2.33
2023-11-22T05:50:53.489Z,2.10
2023-11-22T05:53:21.105Z,2.30
2023-11-22T05:55:49.317Z,1.73
2023-11-22T05:58:19.819Z,2.20
2023-11-22T06:00:47.395Z,2.30
2023-11-22T06:03:15.032Z,2.67
2023-11-22T06:05:42.484Z,2.13
2023-11-22T06:08:10.918Z,2.17
2023-11-22T06:10:42.777Z,2.60
2023-11-22T06:13:11.536Z,2.13
2023-11-22T06:15:38.367Z,2.40
2023-11-22T06:18:05.861Z,2.57
2023-11-22T06:20:33.108Z,2.70
2023-11-22T06:23:00.383Z,1.90
2023-11-22T06:25:28.209Z,2.37
2023-11-22T06:27:55.055Z,2.60
2023-11-22T06:30:22.317Z,2.70
2023-11-22T06:32:50.122Z,2.93
2023-11-22T06:35:18.815Z,2.27
2023-11-22T06:37:46.058Z,2.50
2023-11-22T06:40:17.938Z,2.57
2023-11-22T06:42:44.834Z,2.87
2023-11-22T06:45:13.774Z,3.03
2023-11-22T06:47:41.370Z,3.30
2023-11-22T06:50:12.079Z,3.03
2023-11-22T06:52:39.639Z,3.57
2023-11-22T06:55:10.676Z,3.53
2023-11-22T06:57:38.043Z,3.07
2023-11-22T07:00:10.425Z,3.40
2023-11-22T07:02:39.090Z,2.60
2023-11-22T07:05:10.110Z,3.20
2023-11-22T07:07:37.641Z,3.07
2023-11-22T07:10:06.436Z,3.57
2023-11-22T07:12:35.549Z,2.97
2023-11-22T07:15:03.994Z,3.43
2023-11-22T07:17:31.633Z,3.30
2023-11-22T07:19:58.823Z,2.97
2023-11-22T07:22:25.492Z,3.73
2023-11-22T07:24:52.708Z,3.27
2023-11-22T07:27:19.997Z,3.43
2023-11-22T07:29:47.249Z,2.87
2023-11-22T07:32:14.841Z,3.00
2023-11-22T07:34:42.064Z,12.80
2023-11-22T07:37:09.638Z,11.87
2023-11-22T07:39:37.010Z,11.13
2023-11-22T07:42:04.519Z,6.63
2023-11-22T07:44:34.508Z,4.80
2023-11-22T07:47:01.774Z,9.60
2023-11-22T07:49:29.957Z,17.93
2023-11-22T07:51:57.571Z,8.30
2023-11-22T07:54:24.810Z,4.57
2023-11-22T07:56:53.425Z,11.33
2023-11-22T07:59:20.455Z,4.97
2023-11-22T08:01:50.696Z,4.00
2023-11-22T08:04:18.185Z,6.00
2023-11-22T08:06:45.408Z,5.30
2023-11-22T08:09:12.507Z,5.47
2023-11-22T08:11:39.748Z,5.00
2023-11-22T08:14:08.454Z,4.40
2023-11-22T08:16:39.551Z,8.17
2023-11-22T08:19:06.812Z,8.50
2023-11-22T08:21:33.958Z,8.40
2023-11-22T08:24:01.068Z,11.17
2023-11-22T08:26:28.298Z,10.60
2023-11-22T08:28:56.535Z,13.13
2023-11-22T08:31:23.706Z,9.23
2023-11-22T08:33:50.872Z,7.37
2023-11-22T08:36:19.662Z,7.43
2023-11-22T08:38:47.274Z,7.37
2023-11-22T08:41:15.368Z,7.23
2023-11-22T08:43:43.217Z,6.80
2023-11-22T08:46:14.399Z,6.80
2023-11-22T08:48:43.870Z,6.27
2023-11-22T08:51:11.795Z,6.37
2023-11-22T08:53:39.295Z,4.90
2023-11-22T08:56:07.361Z,5.60
2023-11-22T08:58:34.958Z,5.30
2023-11-22T09:01:04.714Z,5.27
2023-11-22T09:03:32.342Z,5.37
2023-11-22T09:05:59.539Z,4.47
2023-11-22T09:08:29.440Z,9.90
2023-11-22T09:10:58.421Z,15.93
2023-11-22T09:13:26.040Z,13.47
2023-11-22T09:15:53.244Z,10.07
2023-11-22T09:18:20.191Z,7.93
2023-11-22T09:20:55.030Z,5.10
2023-11-22T09:23:22.355Z,5.47
2023-11-22T09:25:50.009Z,9.17
2023-11-22T09:28:17.551Z,8.93
2023-11-22T09:30:46.413Z,14.13
2023-11-22T09:33:16.081Z,4.37
2023-11-22T09:35:45.679Z,6.03
2023-11-22T09:38:13.617Z,4.50
2023-11-22T09:40:46.776Z,3.80
2023-11-22T09:43:19.736Z,4.50
2023-11-22T09:45:55.651Z,3.70
2023-11-22T09:48:26.460Z,3.53
2023-11-22T09:51:09.683Z,5.17
2023-11-22T09:53:55.345Z,5.23
2023-11-22T09:56:22.674Z,2.93
2023-11-22T09:58:57.013Z,6.23
2023-11-22T10:01:24.608Z,3.77
2023-11-22T10:03:52.013Z,2.30
2023-11-22T10:06:19.751Z,4.53
2023-11-22T10:08:49.373Z,5.17
2023-11-22T10:11:19.886Z,4.10
2023-11-22T10:13:52.976Z,3.20
2023-11-22T10:16:21.373Z,4.00
2023-11-22T10:18:49.799Z,2.00
2023-11-22T10:21:34.980Z,2.20
2023-11-22T10:24:04.384Z,10.40
2023-11-22T10:26:32.023Z,3.23
2023-11-22T10:28:59.650Z,2.27
2023-11-22T10:31:27.186Z,2.70
2023-11-22T10:33:55.050Z,2.40
2023-11-22T10:36:23.137Z,2.80
2023-11-22T10:38:52.117Z,1.97
2023-11-22T10:41:21.543Z,2.30
2023-11-22T10:43:49.243Z,2.53
2023-11-22T10:46:17.867Z,22.57
2023-11-22T10:48:44.996Z,5.87
2023-11-22T10:51:15.149Z,4.20
2023-11-22T10:53:50.297Z,1.93
2023-11-22T10:56:20.841Z,1.90
2023-11-22T10:59:00.882Z,4.63
2023-11-22T11:01:30.371Z,2.10
2023-11-22T11:04:08.016Z,3.83
2023-11-22T11:06:37.260Z,3.13
2023-11-22T11:09:09.836Z,2.10
2023-11-22T11:11:38.605Z,2.30
2023-11-22T11:14:08.738Z,3.23
2023-11-22T11:16:39.168Z,2.97
2023-11-22T11:19:08.758Z,2.53
2023-11-22T11:21:36.002Z,3.10
2023-11-22T11:24:06.354Z,2.20
2023-11-22T11:26:35.684Z,2.63
2023-11-22T11:29:05.081Z,15.53
2023-11-22T11:31:40.932Z,7.30
2023-11-22T11:34:08.858Z,3.60
2023-11-22T11:36:38.718Z,7.33
2023-11-22T11:39:15.816Z,8.93
2023-11-22T11:41:43.908Z,3.27
2023-11-22T11:44:12.682Z,2.00
2023-11-22T11:46:40.657Z,2.63
2023-11-22T11:49:11.531Z,1.97
2023-11-22T11:51:39.377Z,2.10
2023-11-22T11:54:06.547Z,2.10
2023-11-22T11:56:35.251Z,1.77
2023-11-22T11:59:03.327Z,1.80
2023-11-22T12:01:31.491Z,2.33
2023-11-22T12:03:58.856Z,2.80
2023-11-22T12:06:26.293Z,2.10
2023-11-22T12:08:54.131Z,2.60
2023-11-22T12:11:21.335Z,2.37
2023-11-22T12:13:50.331Z,2.10
2023-11-22T12:16:19.349Z,1.80
2023-11-22T12:18:51.595Z,2.00
2023-11-22T12:21:19.379Z,2.80
2023-11-22T12:23:49.028Z,2.43
2023-11-22T12:26:20.956Z,2.80
2023-11-22T12:28:57.376Z,2.67
2023-11-22T12:31:35.701Z,2.57
2023-11-22T12:34:03.985Z,2.60
2023-11-22T12:36:31.451Z,3.00
2023-11-22T12:39:01.632Z,2.77
2023-11-22T12:41:31.313Z,2.97
2023-11-22T12:44:09.499Z,2.77
2023-11-22T12:47:00.257Z,2.77
2023-11-22T12:49:28.237Z,2.50
2023-11-22T12:51:56.674Z,2.23
2023-11-22T12:54:24.069Z,3.20
2023-11-22T12:57:01.321Z,2.43
2023-11-22T12:59:29.037Z,1.90
2023-11-22T13:01:57.294Z,3.20
2023-11-22T13:04:25.127Z,2.87
2023-11-22T13:06:53.236Z,3.63
2023-11-22T13:09:20.527Z,3.50
2023-11-22T13:11:48.818Z,6.10
2023-11-22T13:14:16.447Z,5.07
2023-11-22T13:16:44.191Z,2.80
2023-11-22T13:19:11.604Z,4.33
2023-11-22T13:21:38.976Z,3.00
2023-11-22T13:24:07.921Z,2.70
2023-11-22T13:26:36.002Z,3.90
2023-11-22T13:29:03.355Z,3.13
2023-11-22T13:31:30.690Z,3.13
2023-11-22T13:33:58.032Z,3.10
2023-11-22T13:36:25.209Z,3.60
2023-11-22T13:38:53.071Z,3.67
2023-11-22T13:41:20.454Z,2.60
2023-11-22T13:43:49.629Z,2.63
2023-11-22T13:46:18.247Z,3.20
2023-11-22T13:48:45.405Z,4.43
2023-11-22T13:51:12.818Z,3.17
2023-11-22T13:53:44.539Z,3.20
2023-11-22T13:56:13.274Z,3.37
2023-11-22T13:58:41.383Z,2.67
2023-11-22T14:01:13.077Z,2.70
2023-11-22T14:03:40.671Z,2.50
2023-11-22T14:06:08.158Z,2.90
2023-11-22T14:08:35.435Z,3.00
2023-11-22T14:11:02.687Z,3.03
2023-11-22T14:13:29.818Z,2.70
2023-11-22T14:15:57.451Z,2.53
2023-11-22T14:18:26.641Z,2.70
2023-11-22T14:20:54.865Z,3.20
2023-11-22T14:23:21.973Z,3.03
2023-11-22T14:25:48.717Z,2.93
2023-11-22T14:28:16.243Z,2.93
2023-11-22T14:30:43.783Z,3.00
2023-11-22T14:33:11.281Z,3.20
2023-11-22T14:35:38.647Z,2.20
2023-11-22T14:38:07.401Z,2.60
2023-11-22T14:40:36.549Z,2.80
2023-11-22T14:43:04.467Z,2.33
2023-11-22T14:45:33.309Z,4.00
2023-11-22T14:48:02.809Z,2.80
2023-11-22T14:50:32.369Z,3.30
2023-11-22T14:52:59.569Z,2.73
2023-11-22T14:55:27.635Z,2.40
2023-11-22T14:57:57.977Z,2.70
2023-11-22T15:00:26.187Z,2.63
2023-11-22T15:02:55.378Z,3.20
2023-11-22T15:05:23.405Z,2.07
2023-11-22T15:10:34.015Z,2.53
2023-11-22T15:13:02.206Z,2.20
2023-11-22T15:15:29.372Z,3.03
2023-11-22T15:17:56.739Z,2.40
2023-11-22T15:20:24.085Z,2.07
2023-11-22T15:22:51.801Z,2.40
2023-11-22T15:25:18.984Z,2.97
2023-11-22T15:27:46.158Z,2.43
2023-11-22T15:30:13.689Z,2.70
2023-11-22T15:32:41.127Z,2.60
2023-11-22T15:35:09.384Z,2.20
2023-11-22T15:37:36.702Z,2.47
2023-11-22T15:40:04.335Z,2.33
2023-11-22T15:42:31.478Z,2.20
2023-11-22T15:44:58.352Z,2.47
2023-11-22T15:47:25.733Z,2.40
2023-11-22T15:49:54.711Z,2.40
2023-11-22T15:52:22.412Z,3.43
2023-11-22T15:54:49.666Z,3.50
2023-11-22T15:57:17.238Z,2.83
2023-11-22T15:59:44.462Z,2.70
2023-11-22T16:02:12.583Z,3.33
2023-11-22T16:04:39.907Z,2.97
2023-11-22T16:07:07.103Z,3.50
2023-11-22T16:09:34.865Z,3.00
2023-11-22T16:12:02.368Z,2.80
2023-11-22T16:14:30.427Z,3.10
2023-11-22T16:16:57.852Z,2.80
2023-11-22T16:19:25.838Z,3.03
2023-11-22T16:21:53.728Z,3.50
2023-11-22T16:24:20.409Z,4.03
2023-11-22T16:26:47.620Z,3.67
2023-11-22T16:29:17.005Z,4.30
2023-11-22T16:31:44.497Z,3.77
2023-11-22T16:34:12.127Z,3.37
2023-11-22T16:36:39.511Z,2.90
2023-11-22T16:39:16.650Z,3.80
2023-11-22T16:41:51.998Z,3.53
2023-11-22T16:44:20.309Z,3.70
2023-11-22T16:46:48.365Z,4.03
2023-11-22T16:49:15.690Z,3.57
2023-11-22T16:51:45.145Z,3.30
2023-11-22T16:54:12.278Z,2.97
2023-11-22T16:56:39.982Z,3.80
2023-11-22T16:59:08.917Z,3.17
2023-11-22T17:01:36.272Z,3.10
2023-11-22T17:04:03.701Z,3.40
2023-11-22T17:06:30.948Z,3.30
2023-11-22T17:08:57.715Z,3.07
2023-11-22T17:11:24.963Z,3.27
2023-11-22T17:13:52.154Z,3.10
2023-11-22T17:16:20.053Z,3.43
2023-11-22T17:18:48.587Z,3.50
2023-11-22T17:21:17.799Z,3.57
2023-11-22T17:23:45.246Z,3.17
2023-11-22T17:26:13.265Z,5.27
2023-11-22T17:28:40.834Z,5.57
2023-11-22T17:31:08.048Z,9.30
2023-11-22T17:33:35.567Z,4.70
2023-11-22T17:36:03.078Z,5.07
2023-11-22T17:38:30.286Z,5.40
2023-11-22T17:40:57.469Z,5.03
2023-11-22T17:43:24.733Z,4.70
2023-11-22T17:45:52.005Z,3.90
2023-11-22T17:48:19.234Z,3.80
2023-11-22T17:50:46.631Z,3.90
2023-11-22T17:53:13.744Z,3.50
2023-11-22T17:55:41.019Z,4.03
2023-11-22T17:58:08.268Z,3.77
2023-11-22T18:00:35.400Z,3.70
2023-11-22T18:03:03.043Z,3.50
2023-11-22T18:05:30.372Z,4.40
2023-11-22T18:07:57.789Z,4.17
2023-11-22T18:10:31.974Z,3.50
2023-11-22T18:13:08.902Z,3.70
2023-11-22T18:15:38.738Z,4.40
2023-11-22T18:18:06.111Z,3.90
2023-11-22T18:20:33.628Z,3.53
2023-11-22T18:23:00.759Z,4.37
2023-11-22T18:25:27.851Z,3.70
2023-11-22T18:27:54.810Z,3.70
2023-11-22T18:30:22.110Z,3.97
2023-11-22T18:32:49.292Z,3.80
2023-11-22T18:35:16.452Z,4.03
2023-11-22T18:37:44.396Z,4.60
2023-11-22T18:40:11.760Z,4.00
2023-11-22T18:42:39.999Z,4.00
2023-11-22T18:45:07.388Z,4.40
2023-11-22T18:47:34.623Z,4.33
2023-11-22T18:50:01.784Z,4.60
2023-11-22T18:52:28.882Z,5.13
2023-11-22T18:54:57.745Z,4.87
2023-11-22T18:57:24.996Z,5.27
2023-11-22T18:59:52.409Z,5.00
2023-11-22T19:02:21.012Z,4.73
2023-11-22T19:04:48.280Z,4.00
2023-11-22T19:07:15.719Z,4.90
2023-11-22T19:09:42.847Z,4.70
2023-11-22T19:12:12.111Z,4.00
2023-11-22T19:14:40.176Z,4.67
2023-11-22T19:17:07.817Z,4.23
2023-11-22T19:19:35.066Z,4.07
2023-11-22T19:22:03.313Z,4.47
2023-11-22T19:24:30.465Z,4.20
2023-11-22T19:26:57.705Z,4.43
2023-11-22T19:29:24.928Z,4.17
2023-11-22T19:31:53.005Z,4.03
2023-11-22T19:34:20.643Z,4.90
2023-11-22T19:36:47.878Z,4.43
2023-11-22T19:39:15.038Z,4.40
2023-11-22T19:41:42.341Z,3.63
2023-11-22T19:44:09.586Z,3.53
2023-11-22T19:46:36.787Z,3.53
2023-11-22T19:49:04.765Z,3.30
2023-11-22T19:51:32.568Z,3.40
2023-11-22T19:53:59.729Z,3.53
2023-11-22T19:56:28.094Z,3.70
2023-11-22T19:58:55.262Z,3.23
2023-11-22T20:01:23.378Z,3.30
2023-11-22T20:03:50.760Z,3.23
2023-11-22T20:06:17.939Z,3.37
2023-11-22T20:08:45.109Z,3.53
2023-11-22T20:11:12.584Z,3.37
2023-11-22T20:13:39.873Z,3.10
2023-11-22T20:16:07.104Z,3.07
2023-11-22T20:18:34.302Z,3.67
2023-11-22T20:21:01.551Z,3.20
2023-11-22T20:23:29.256Z,2.83
2023-11-22T20:25:56.485Z,2.90
2023-11-22T20:28:23.605Z,2.77
2023-11-22T20:30:50.781Z,2.77
2023-11-22T20:33:18.134Z,2.20
2023-11-22T20:35:45.066Z,2.60
2023-11-22T20:38:11.900Z,2.43
2023-11-22T20:40:39.020Z,2.40
2023-11-22T20:43:06.155Z,2.50
2023-11-22T20:45:33.327Z,2.97
2023-11-22T20:48:00.635Z,2.93
2023-11-22T20:50:27.450Z,3.10
2023-11-22T20:52:55.134Z,2.70
2023-11-22T20:55:22.297Z,2.53
2023-11-22T20:57:49.457Z,3.33
2023-11-22T21:00:16.428Z,3.07
2023-11-22T21:02:43.826Z,3.33
2023-11-22T21:05:10.619Z,3.10
2023-11-22T21:07:38.361Z,3.10
2023-11-22T21:10:05.855Z,3.10
2023-11-22T21:12:33.010Z,2.83
2023-11-22T21:15:00.486Z,3.13
2023-11-22T21:17:36.825Z,3.60
2023-11-22T21:20:10.628Z,3.17
2023-11-22T21:22:38.496Z,2.73
2023-11-22T21:25:09.046Z,4.00
2023-11-22T21:27:36.280Z,3.13
2023-11-22T21:30:03.590Z,3.30
2023-11-22T21:32:30.916Z,3.03
2023-11-22T21:34:57.674Z,3.67
2023-11-22T21:37:24.791Z,3.47
2023-11-22T21:39:51.906Z,3.10
2023-11-22T21:42:19.038Z,3.23
2023-11-22T21:44:46.242Z,4.00
2023-11-22T21:47:13.488Z,3.17
2023-11-22T21:49:40.984Z,3.37
2023-11-22T21:52:08.148Z,3.90
2023-11-22T21:54:35.269Z,3.43
2023-11-22T21:57:02.412Z,3.40
2023-11-22T21:59:29.600Z,4.27
2023-11-22T22:01:56.754Z,3.60
2023-11-22T22:04:23.900Z,4.33
2023-11-22T22:06:51.289Z,3.90
2023-11-22T22:09:20.606Z,4.13
2023-11-22T22:11:48.008Z,3.97
2023-11-22T22:14:15.216Z,4.43
2023-11-22T22:16:42.351Z,4.90
2023-11-22T22:19:10.410Z,4.93
2023-11-22T22:21:37.814Z,4.83
2023-11-22T22:24:05.361Z,4.47
2023-11-22T22:26:32.552Z,5.10
2023-11-22T22:28:59.686Z,5.00
2023-11-22T22:31:26.901Z,4.83
2023-11-22T22:33:54.229Z,4.57
2023-11-22T22:36:21.006Z,4.37
2023-11-22T22:38:48.418Z,4.63
2023-11-22T22:41:19.541Z,4.63
2023-11-22T22:43:46.790Z,4.73
2023-11-22T22:46:14.319Z,4.60
2023-11-22T22:48:41.771Z,4.60
2023-11-22T22:51:13.281Z,4.20
2023-11-22T22:53:41.365Z,4.93
2023-11-22T22:56:08.615Z,4.90
2023-11-22T22:58:36.058Z,4.37
2023-11-22T23:01:03.578Z,4.50
2023-11-22T23:03:31.011Z,4.20
2023-11-22T23:05:58.324Z,4.40
2023-11-22T23:08:25.636Z,4.90
2023-11-22T23:10:52.781Z,3.90
2023-11-22T23:13:19.918Z,4.47
2023-11-22T23:15:47.075Z,4.73
2023-11-22T23:18:14.279Z,4.43
2023-11-22T23:20:48.822Z,4.00
2023-11-22T23:23:17.999Z,4.10
2023-11-22T23:25:45.368Z,3.80
2023-11-22T23:28:12.577Z,4.23
2023-11-22T23:30:39.928Z,3.70
2023-11-22T23:33:08.018Z,3.90
2023-11-22T23:35:35.606Z,3.27
2023-11-22T23:38:03.067Z,4.20
2023-11-22T23:40:30.388Z,3.90
2023-11-22T23:42:58.899Z,4.43
2023-11-22T23:45:26.508Z,3.97
2023-11-22T23:47:53.935Z,3.87
2023-11-22T23:50:21.376Z,4.03
2023-11-22T23:52:50.800Z,4.20
2023-11-22T23:55:18.581Z,4.43
2023-11-22T23:57:46.237Z,3.93
